createdAt,value
2022-11-02T00:01:41.571Z,89.30
2022-11-02T00:04:10.944Z,65.77
2022-11-02T00:06:41.254Z,66.33
2022-11-02T00:09:11.487Z,76.63
2022-11-02T00:11:39.949Z,75.17
2022-11-02T00:14:08.592Z,58.33
2022-11-02T00:16:40.939Z,52.67
2022-11-02T00:19:12.570Z,55.07
2022-11-02T00:21:42.551Z,59.47
2022-11-02T00:24:13.968Z,48.53
2022-11-02T00:26:42.522Z,51.90
2022-11-02T00:29:11.231Z,48.63
2022-11-02T00:31:39.803Z,56.47
2022-11-02T00:34:08.301Z,51.80
2022-11-02T00:36:36.864Z,65.33
2022-11-02T00:39:05.560Z,49.87
2022-11-02T00:41:35.460Z,64.67
2022-11-02T00:44:04.572Z,61.70
2022-11-02T00:46:33.126Z,68.37
2022-11-02T00:49:01.672Z,90.57
2022-11-02T00:51:31.223Z,49.93
2022-11-02T00:53:59.752Z,45.20
2022-11-02T00:56:28.992Z,45.47
2022-11-02T00:58:59.456Z,43.30
2022-11-02T01:01:28.209Z,43.00
2022-11-02T01:03:58.086Z,46.43
2022-11-02T01:06:26.806Z,43.20
2022-11-02T01:08:55.658Z,53.90
2022-11-02T01:11:26.234Z,76.00
2022-11-02T01:13:55.392Z,44.40
2022-11-02T01:16:25.608Z,39.80
2022-11-02T01:18:54.997Z,39.63
2022-11-02T01:21:24.955Z,66.17
2022-11-02T01:23:53.964Z,36.83
2022-11-02T01:26:22.457Z,48.20
2022-11-02T01:28:51.146Z,47.30
2022-11-02T01:31:20.140Z,41.10
2022-11-02T01:33:50.315Z,36.83
2022-11-02T01:38:54.847Z,41.60
2022-11-02T01:41:23.853Z,49.97
2022-11-02T01:43:58.921Z,48.30
2022-11-02T01:46:38.199Z,35.20
2022-11-02T01:49:14.520Z,55.93
2022-11-02T01:51:50.355Z,37.70
2022-11-02T01:54:27.357Z,49.77
2022-11-02T01:57:03.988Z,48.93
2022-11-02T01:59:45.061Z,40.43
2022-11-02T02:02:22.609Z,45.00
2022-11-02T02:05:05.075Z,39.03
2022-11-02T02:07:37.845Z,35.43
2022-11-02T02:10:08.744Z,39.00
2022-11-02T02:12:42.222Z,43.23
2022-11-02T02:15:12.822Z,34.43
2022-11-02T02:17:51.531Z,31.73
2022-11-02T02:20:47.612Z,37.93
2022-11-02T02:24:13.424Z,38.60
2022-11-02T02:27:06.775Z,35.07
2022-11-02T02:29:50.931Z,36.27
2022-11-02T02:32:31.555Z,44.20
2022-11-02T02:35:11.644Z,39.03
2022-11-02T02:37:52.474Z,33.73
2022-11-02T02:40:26.653Z,44.90
2022-11-02T02:43:00.178Z,32.77
2022-11-02T02:45:38.296Z,33.13
2022-11-02T02:48:13.478Z,36.40
2022-11-02T02:50:49.370Z,35.33
2022-11-02T02:53:25.484Z,34.47
2022-11-02T02:55:54.210Z,36.10
2022-11-02T02:58:27.425Z,39.00
2022-11-02T03:01:01.153Z,37.90
2022-11-02T03:03:32.690Z,30.90
2022-11-02T03:06:14.404Z,34.47
2022-11-02T03:08:58.893Z,37.40
2022-11-02T03:11:29.236Z,30.50
2022-11-02T03:14:14.345Z,36.53
2022-11-02T03:17:07.265Z,31.10
2022-11-02T03:19:50.814Z,30.73
2022-11-02T03:22:34.790Z,32.77
2022-11-02T03:25:17.526Z,31.53
2022-11-02T03:27:56.193Z,35.77
2022-11-02T03:30:30.537Z,35.67
2022-11-02T03:33:08.333Z,37.40
2022-11-02T03:35:44.454Z,32.17
2022-11-02T03:38:20.419Z,36.10
2022-11-02T03:40:53.976Z,30.23
2022-11-02T03:43:25.207Z,34.03
2022-11-02T03:46:02.217Z,32.17
2022-11-02T03:48:39.377Z,34.27
2022-11-02T03:51:14.865Z,39.57
2022-11-02T03:53:50.897Z,32.73
2022-11-02T03:56:28.016Z,46.43
2022-11-02T03:58:58.302Z,38.17
2022-11-02T04:01:30.701Z,32.20
2022-11-02T04:04:00.863Z,33.90
2022-11-02T04:06:29.716Z,38.20
2022-11-02T04:08:58.503Z,36.87
2022-11-02T04:11:45.045Z,32.93
2022-11-02T04:14:33.521Z,34.00
2022-11-02T04:17:20.818Z,30.57
2022-11-02T04:19:54.698Z,31.37
2022-11-02T04:22:42.608Z,34.57
2022-11-02T04:25:22.272Z,29.77
2022-11-02T04:28:11.271Z,32.30
2022-11-02T04:30:45.752Z,36.83
2022-11-02T04:33:31.684Z,43.00
2022-11-02T04:36:09.694Z,32.67
2022-11-02T04:38:42.349Z,36.00
2022-11-02T04:41:44.274Z,28.50
2022-11-02T04:44:23.669Z,34.97
2022-11-02T04:47:01.170Z,32.83
2022-11-02T04:49:33.101Z,30.57
2022-11-02T04:52:03.267Z,35.40
2022-11-02T04:54:34.836Z,38.27
2022-11-02T04:57:05.444Z,28.90
2022-11-02T04:59:35.309Z,32.23
2022-11-02T05:02:04.850Z,30.10
2022-11-02T05:04:34.285Z,30.30
2022-11-02T05:07:07.657Z,33.50
2022-11-02T05:09:37.839Z,30.20
2022-11-02T05:12:07.485Z,29.23
2022-11-02T05:14:37.048Z,32.73
2022-11-02T05:17:05.718Z,32.00
2022-11-02T05:19:35.884Z,30.63
2022-11-02T05:22:07.815Z,30.77
2022-11-02T05:24:36.413Z,28.93
2022-11-02T05:27:06.576Z,31.53
2022-11-02T05:29:37.864Z,32.37
2022-11-02T05:32:06.770Z,35.13
2022-11-02T05:34:35.715Z,32.90
2022-11-02T05:37:04.768Z,36.70
2022-11-02T05:39:34.732Z,32.07
2022-11-02T05:42:04.063Z,31.10
2022-11-02T05:44:32.767Z,30.60
2022-11-02T05:47:01.588Z,29.83
2022-11-02T05:49:31.520Z,30.87
2022-11-02T05:52:00.816Z,31.97
2022-11-02T05:54:29.479Z,32.30
2022-11-02T05:57:00.005Z,35.10
2022-11-02T05:59:28.548Z,38.93
2022-11-02T06:01:57.221Z,31.70
2022-11-02T06:04:25.843Z,37.30
2022-11-02T06:06:54.840Z,36.53
2022-11-02T06:09:23.460Z,31.30
2022-11-02T06:11:52.010Z,32.97
2022-11-02T06:14:21.880Z,31.20
2022-11-02T06:16:50.321Z,30.90
2022-11-02T06:19:19.313Z,32.30
2022-11-02T06:21:48.649Z,44.13
2022-11-02T06:24:17.382Z,27.80
2022-11-02T06:26:46.828Z,27.00
2022-11-02T06:29:15.717Z,26.97
2022-11-02T06:31:45.558Z,31.13
2022-11-02T06:34:14.022Z,30.63
2022-11-02T06:36:42.758Z,33.97
2022-11-02T06:39:11.419Z,27.13
2022-11-02T06:41:39.935Z,34.00
2022-11-02T06:44:08.664Z,31.87
2022-11-02T06:46:37.112Z,27.47
2022-11-02T06:49:07.021Z,24.73
2022-11-02T06:51:35.531Z,22.97
2022-11-02T06:54:08.472Z,22.27
2022-11-02T06:56:37.454Z,23.83
2022-11-02T06:59:05.903Z,26.67
2022-11-02T07:01:35.191Z,23.00
2022-11-02T07:04:05.953Z,30.23
2022-11-02T07:06:34.513Z,25.93
2022-11-02T07:09:03.084Z,26.87
2022-11-02T07:11:31.537Z,26.93
2022-11-02T07:14:00.012Z,24.70
2022-11-02T07:16:28.587Z,20.83
2022-11-02T07:18:57.751Z,20.17
2022-11-02T07:21:27.742Z,26.13
2022-11-02T07:23:56.367Z,21.80
2022-11-02T07:26:26.455Z,22.67
2022-11-02T07:28:56.822Z,21.00
2022-11-02T07:31:27.736Z,23.40
2022-11-02T07:33:56.311Z,29.17
2022-11-02T07:36:24.769Z,26.30
2022-11-02T07:38:54.817Z,24.63
2022-11-02T07:41:23.293Z,22.33
2022-11-02T07:43:51.759Z,25.00
2022-11-02T07:46:37.552Z,27.03
2022-11-02T07:49:06.096Z,28.37
2022-11-02T07:51:34.573Z,30.63
2022-11-02T07:54:04.500Z,27.80
2022-11-02T07:56:33.060Z,24.27
2022-11-02T07:59:01.556Z,28.83
2022-11-02T08:01:30.118Z,23.10
2022-11-02T08:03:59.640Z,26.50
2022-11-02T08:06:28.169Z,26.77
2022-11-02T08:08:56.775Z,25.17
2022-11-02T08:11:26.684Z,30.93
2022-11-02T08:13:55.222Z,31.70
2022-11-02T08:16:23.785Z,28.90
2022-11-02T08:18:52.251Z,23.50
2022-11-02T08:21:20.774Z,24.33
2022-11-02T08:23:49.275Z,18.40
2022-11-02T08:26:17.834Z,26.27
2022-11-02T08:28:48.227Z,24.30
2022-11-02T08:31:18.755Z,23.57
2022-11-02T08:33:47.722Z,24.47
2022-11-02T08:36:16.235Z,26.73
2022-11-02T08:38:44.723Z,21.10
2022-11-02T08:41:14.588Z,23.23
2022-11-02T08:43:43.046Z,25.23
2022-11-02T08:46:15.711Z,30.23
2022-11-02T08:48:45.304Z,34.10
2022-11-02T08:51:14.249Z,31.20
2022-11-02T08:53:47.081Z,34.50
2022-11-02T08:56:18.933Z,36.27
2022-11-02T08:58:47.463Z,30.10
2022-11-02T09:01:17.799Z,33.27
2022-11-02T09:03:46.356Z,31.50
2022-11-02T09:06:14.858Z,25.40
2022-11-02T09:08:43.368Z,31.47
2022-11-02T09:11:11.825Z,28.70
2022-11-02T09:13:40.588Z,25.07
2022-11-02T09:16:09.772Z,25.23
2022-11-02T09:18:41.351Z,25.80
2022-11-02T09:21:09.845Z,26.77
2022-11-02T09:23:38.314Z,28.83
2022-11-02T09:26:07.113Z,30.23
2022-11-02T09:28:35.574Z,26.47
2022-11-02T09:31:07.488Z,28.33
2022-11-02T09:33:40.610Z,27.50
2022-11-02T09:36:10.294Z,30.87
2022-11-02T09:38:38.844Z,28.07
2022-11-02T09:41:19.488Z,27.33
2022-11-02T09:44:01.168Z,28.90
2022-11-02T09:46:34.991Z,28.20
2022-11-02T09:49:12.686Z,23.87
2022-11-02T09:51:47.869Z,31.57
2022-11-02T09:54:24.611Z,25.10
2022-11-02T09:56:58.973Z,22.30
2022-11-02T09:59:28.758Z,23.30
2022-11-02T10:02:06.242Z,25.17
2022-11-02T10:05:09.765Z,21.97
2022-11-02T10:08:11.415Z,25.93
2022-11-02T10:10:48.760Z,22.43
2022-11-02T10:13:35.468Z,24.43
2022-11-02T10:16:14.343Z,24.80
2022-11-02T10:18:49.356Z,24.13
2022-11-02T10:21:22.940Z,23.30
2022-11-02T10:23:54.783Z,23.83
2022-11-02T10:26:28.551Z,19.87
2022-11-02T10:29:03.079Z,24.33
2022-11-02T10:31:35.416Z,20.37
2022-11-02T10:34:23.731Z,21.50
2022-11-02T10:37:16.633Z,17.73
2022-11-02T10:40:08.985Z,19.00
2022-11-02T10:43:01.301Z,16.23
2022-11-02T10:46:22.631Z,14.23
2022-11-02T10:49:05.872Z,13.83
2022-11-02T10:51:35.039Z,21.33
2022-11-02T10:54:17.631Z,14.27
2022-11-02T10:56:50.829Z,13.07
2022-11-02T10:59:23.607Z,11.40
2022-11-02T11:02:11.573Z,13.13
2022-11-02T11:04:40.600Z,19.37
2022-11-02T11:07:17.967Z,10.97
2022-11-02T11:09:55.999Z,13.67
2022-11-02T11:12:33.659Z,10.83
2022-11-02T11:20:45.679Z,12.17
2022-11-02T11:23:24.463Z,9.90
2022-11-02T11:26:00.799Z,8.60
2022-11-02T11:28:33.814Z,13.53
2022-11-02T11:31:13.383Z,11.63
2022-11-02T11:33:49.500Z,12.50
2022-11-02T11:36:41.142Z,10.73
2022-11-02T11:39:27.560Z,8.43
2022-11-02T11:41:59.505Z,10.93
2022-11-02T11:44:28.408Z,9.93
2022-11-02T11:47:00.626Z,15.67
2022-11-02T11:50:03.021Z,12.10
2022-11-02T11:52:32.066Z,11.90
2022-11-02T11:55:02.827Z,13.43
2022-11-02T11:57:35.361Z,12.70
2022-11-02T12:00:29.634Z,8.00
2022-11-02T12:03:07.684Z,9.03
2022-11-02T12:05:54.041Z,8.77
2022-11-02T12:08:52.341Z,12.70
2022-11-02T12:11:41.854Z,8.50
2022-11-02T12:14:27.771Z,22.33
2022-11-02T12:17:35.599Z,9.00
2022-11-02T12:20:47.277Z,14.10
2022-11-02T12:23:47.691Z,9.40
2022-11-02T12:26:41.221Z,12.10
2022-11-02T12:29:46.955Z,10.70
2022-11-02T12:32:42.176Z,9.27
2022-11-02T12:35:44.764Z,10.63
2022-11-02T12:39:08.204Z,9.60
2022-11-02T12:42:08.962Z,11.90
2022-11-02T12:44:54.142Z,12.33
2022-11-02T12:47:59.582Z,11.50
2022-11-02T12:50:47.011Z,15.77
2022-11-02T12:53:43.395Z,9.23
2022-11-02T12:56:21.662Z,13.53
2022-11-02T12:58:51.066Z,10.27
2022-11-02T13:01:28.616Z,10.57
2022-11-02T13:04:11.666Z,15.97
2022-11-02T13:06:46.547Z,8.83
2022-11-02T13:09:24.620Z,13.83
2022-11-02T13:12:01.828Z,8.77
2022-11-02T13:14:41.026Z,12.07
2022-11-02T13:17:19.604Z,9.10
2022-11-02T13:19:55.009Z,12.40
2022-11-02T13:22:31.003Z,11.53
2022-11-02T13:25:13.951Z,11.60
2022-11-02T13:27:52.014Z,10.17
2022-11-02T13:30:22.068Z,14.13
2022-11-02T13:32:59.996Z,8.50
2022-11-02T13:35:35.900Z,13.70
2022-11-02T13:38:17.440Z,11.63
2022-11-02T13:40:51.295Z,9.60
2022-11-02T13:44:05.311Z,10.10
2022-11-02T13:47:03.251Z,9.17
2022-11-02T13:49:37.483Z,10.60
2022-11-02T13:52:15.035Z,9.50
2022-11-02T13:54:49.803Z,10.50
2022-11-02T13:57:36.866Z,12.13
2022-11-02T14:00:25.150Z,9.43
2022-11-02T14:03:02.057Z,13.60
2022-11-02T14:05:34.761Z,12.13
2022-11-02T14:08:08.947Z,14.17
2022-11-02T14:10:40.722Z,11.10
2022-11-02T14:13:17.377Z,9.33
2022-11-02T14:15:53.708Z,15.50
2022-11-02T14:18:31.980Z,11.83
2022-11-02T14:21:41.590Z,12.67
2022-11-02T14:25:10.315Z,12.27
2022-11-02T14:27:40.163Z,9.53
2022-11-02T14:30:45.201Z,10.00
2022-11-02T14:33:55.666Z,8.70
2022-11-02T14:36:48.166Z,9.43
2022-11-02T14:39:31.824Z,11.57
2022-11-02T14:42:22.263Z,10.73
2022-11-02T14:45:23.314Z,12.70
2022-11-02T14:48:00.097Z,17.43
2022-11-02T14:50:29.644Z,17.23
2022-11-02T14:53:06.690Z,13.00
2022-11-02T14:55:38.929Z,8.90
2022-11-02T14:58:20.131Z,13.00
2022-11-02T15:01:01.159Z,8.10
2022-11-02T15:03:42.345Z,10.63
2022-11-02T15:06:23.700Z,11.50
2022-11-02T15:08:56.737Z,8.90
2022-11-02T15:11:45.206Z,15.43
2022-11-02T15:14:59.606Z,19.23
2022-11-02T15:18:00.535Z,10.60
2022-11-02T15:20:32.862Z,11.30
2022-11-02T15:23:31.297Z,9.23
2022-11-02T15:26:01.519Z,9.07
2022-11-02T15:28:35.038Z,15.60
2022-11-02T15:31:14.045Z,8.20
2022-11-02T15:33:47.907Z,13.60
2022-11-02T15:36:23.101Z,12.53
2022-11-02T15:38:54.580Z,11.10
2022-11-02T15:41:37.642Z,13.13
2022-11-02T15:44:36.656Z,14.10
2022-11-02T15:47:19.007Z,15.00
2022-11-02T15:50:16.927Z,13.10
2022-11-02T15:53:23.255Z,15.13
2022-11-02T15:56:20.371Z,10.97
2022-11-02T15:59:17.638Z,9.13
2022-11-02T16:01:46.464Z,15.33
2022-11-02T16:04:22.435Z,16.73
2022-11-02T16:06:52.360Z,17.50
2022-11-02T16:09:34.025Z,17.10
2022-11-02T16:12:13.257Z,12.37
2022-11-02T16:14:42.630Z,10.00
2022-11-02T16:17:32.041Z,16.80
2022-11-02T16:20:15.787Z,22.67
2022-11-02T16:22:50.814Z,15.13
2022-11-02T16:25:28.151Z,18.27
2022-11-02T16:27:57.472Z,15.63
2022-11-02T16:30:26.046Z,17.63
2022-11-02T16:33:01.970Z,12.83
2022-11-02T16:35:30.838Z,18.97
2022-11-02T16:38:01.361Z,13.70
2022-11-02T16:40:30.425Z,21.97
2022-11-02T16:42:59.215Z,12.07
2022-11-02T16:45:40.308Z,19.23
2022-11-02T16:48:22.598Z,19.00
2022-11-02T16:51:11.958Z,12.57
2022-11-02T16:53:45.187Z,21.27
2022-11-02T16:56:28.822Z,17.10
2022-11-02T16:59:02.070Z,19.73
2022-11-02T17:01:38.822Z,22.77
2022-11-02T17:04:24.487Z,19.57
2022-11-02T17:06:57.611Z,18.10
2022-11-02T17:09:30.979Z,23.50
2022-11-02T17:12:06.698Z,18.90
2022-11-02T17:14:35.323Z,27.83
2022-11-02T17:17:08.377Z,19.83
2022-11-02T17:19:55.013Z,27.90
2022-11-02T17:22:30.196Z,22.53
2022-11-02T17:25:13.942Z,24.30
2022-11-02T17:27:42.969Z,30.20
2022-11-02T17:30:46.211Z,27.43
2022-11-02T17:33:27.173Z,32.40
2022-11-02T17:35:58.382Z,21.57
2022-11-02T17:38:28.778Z,27.60
2022-11-02T17:41:01.754Z,25.53
2022-11-02T17:43:29.437Z,35.57
2022-11-02T17:46:00.173Z,47.53
2022-11-02T17:48:29.601Z,47.50
2022-11-02T17:51:00.620Z,40.27
2022-11-02T17:53:29.600Z,40.03
2022-11-02T17:55:59.517Z,43.13
2022-11-02T17:58:28.081Z,37.20
2022-11-02T18:00:56.871Z,44.80
2022-11-02T18:03:29.994Z,39.10
2022-11-02T18:06:00.705Z,39.30
2022-11-02T18:08:29.982Z,31.70
2022-11-02T18:10:59.991Z,27.90
2022-11-02T18:13:28.527Z,48.93
2022-11-02T18:15:57.271Z,27.33
2022-11-02T18:18:26.037Z,27.77
2022-11-02T18:20:54.674Z,34.23
2022-11-02T18:23:23.372Z,32.47
2022-11-02T18:25:55.205Z,32.73
2022-11-02T18:28:28.424Z,31.43
2022-11-02T18:30:57.147Z,22.93
2022-11-02T18:33:25.826Z,27.30
2022-11-02T18:36:02.175Z,26.73
2022-11-02T18:38:32.397Z,23.43
2022-11-02T18:41:26.018Z,25.13
2022-11-02T18:44:04.659Z,27.83
2022-11-02T18:46:35.481Z,26.20
2022-11-02T18:49:04.316Z,37.20
2022-11-02T18:51:32.931Z,27.47
2022-11-02T18:54:06.031Z,26.63
2022-11-02T18:56:35.062Z,26.27
2022-11-02T18:59:05.398Z,31.07
2022-11-02T19:01:34.599Z,37.90
2022-11-02T19:04:03.980Z,30.37
2022-11-02T19:06:51.899Z,36.30
2022-11-02T19:09:23.471Z,28.10
2022-11-02T19:11:57.501Z,39.80
2022-11-02T19:14:30.117Z,30.03
2022-11-02T19:16:58.799Z,24.67
2022-11-02T19:19:27.370Z,42.43
2022-11-02T19:21:56.063Z,34.43
2022-11-02T19:24:25.055Z,33.87
2022-11-02T19:26:53.840Z,38.90
2022-11-02T19:29:22.991Z,30.77
2022-11-02T19:31:52.954Z,34.30
2022-11-02T19:34:21.462Z,41.27
2022-11-02T19:36:50.046Z,37.23
2022-11-02T19:39:18.657Z,35.60
2022-11-02T19:41:48.756Z,34.23
2022-11-02T19:44:17.296Z,36.70
2022-11-02T19:46:45.912Z,41.00
2022-11-02T19:49:16.449Z,46.90
2022-11-02T19:51:45.142Z,38.93
2022-11-02T19:54:13.834Z,35.83
2022-11-02T19:56:42.550Z,50.70
2022-11-02T19:59:11.247Z,56.67
2022-11-02T20:01:43.091Z,51.50
2022-11-02T20:04:11.941Z,44.10
2022-11-02T20:06:44.589Z,46.03
2022-11-02T20:09:17.566Z,47.30
2022-11-02T20:11:47.134Z,44.77
2022-11-02T20:14:17.808Z,41.47
2022-11-02T20:16:58.388Z,37.63
2022-11-02T20:19:33.384Z,33.80
2022-11-02T20:22:03.445Z,35.03
2022-11-02T20:24:31.982Z,29.40
2022-11-02T20:27:02.984Z,28.73
2022-11-02T20:29:31.568Z,35.73
2022-11-02T20:32:00.157Z,24.70
2022-11-02T20:34:28.716Z,36.63
2022-11-02T20:36:57.277Z,34.93
2022-11-02T20:39:27.293Z,30.97
2022-11-02T20:41:57.111Z,35.50
2022-11-02T20:44:25.729Z,30.27
2022-11-02T20:46:54.283Z,27.60
2022-11-02T20:49:48.641Z,31.80
2022-11-02T20:52:12.066Z,37.03
2022-11-02T20:54:42.035Z,29.07
2022-11-02T20:57:10.662Z,27.80
2022-11-02T20:59:39.560Z,26.67
2022-11-02T21:02:12.528Z,37.80
2022-11-02T21:04:41.259Z,31.47
2022-11-02T21:07:09.749Z,37.10
2022-11-02T21:09:38.362Z,34.83
2022-11-02T21:12:29.501Z,29.50
2022-11-02T21:14:58.205Z,34.90
2022-11-02T21:17:27.016Z,35.20
2022-11-02T21:19:58.334Z,35.50
2022-11-02T21:22:31.654Z,34.30
2022-11-02T21:25:00.257Z,33.23
2022-11-02T21:27:30.299Z,35.97
2022-11-02T21:29:58.826Z,38.67
2022-11-02T21:32:27.309Z,32.57
2022-11-02T21:34:55.727Z,31.17
2022-11-02T21:37:24.378Z,36.67
2022-11-02T21:39:53.028Z,37.00
2022-11-02T21:42:21.554Z,30.93
2022-11-02T21:44:51.427Z,69.87
2022-11-02T21:47:19.964Z,47.20
2022-11-02T21:49:48.570Z,40.17
2022-11-02T21:52:17.480Z,42.57
2022-11-02T21:54:46.240Z,33.63
2022-11-02T21:57:17.200Z,35.30
2022-11-02T21:59:45.916Z,38.93
2022-11-02T22:02:14.901Z,32.87
2022-11-02T22:04:43.564Z,32.83
2022-11-02T22:07:12.551Z,26.93
2022-11-02T22:09:41.233Z,26.63
2022-11-02T22:12:27.443Z,25.60
2022-11-02T22:14:55.895Z,25.50
2022-11-02T22:17:48.732Z,24.23
2022-11-02T22:20:14.681Z,29.23
2022-11-02T22:22:43.225Z,33.93
2022-11-02T22:25:11.730Z,27.73
2022-11-02T22:27:40.258Z,38.00
2022-11-02T22:30:09.909Z,30.53
2022-11-02T22:32:39.746Z,24.60
2022-11-02T22:35:08.865Z,28.33
2022-11-02T22:37:54.931Z,37.00
2022-11-02T22:40:23.470Z,24.47
2022-11-02T22:42:55.888Z,23.27
2022-11-02T22:45:24.373Z,25.50
2022-11-02T22:47:54.359Z,30.33
2022-11-02T22:50:26.711Z,24.47
2022-11-02T22:52:56.381Z,22.73
2022-11-02T22:55:25.014Z,24.90
2022-11-02T22:57:59.738Z,24.73
2022-11-02T23:00:28.560Z,23.83
2022-11-02T23:02:58.417Z,20.80
2022-11-02T23:05:26.968Z,21.50
2022-11-02T23:07:55.413Z,21.13
2022-11-02T23:10:41.628Z,22.50
2022-11-02T23:13:10.110Z,14.93
2022-11-02T23:15:41.557Z,26.50
2022-11-02T23:18:11.387Z,15.90
2022-11-02T23:20:38.877Z,19.80
2022-11-02T23:23:25.028Z,15.37
2022-11-02T23:25:57.056Z,17.00
2022-11-02T23:28:43.285Z,19.60
2022-11-02T23:31:29.407Z,25.83
2022-11-02T23:34:00.858Z,13.50
2022-11-02T23:36:28.350Z,18.23
2022-11-02T23:39:14.384Z,14.20
2022-11-02T23:41:42.915Z,21.23
2022-11-02T23:44:14.774Z,18.37
2022-11-02T23:46:45.746Z,21.60
2022-11-02T23:49:18.986Z,16.67
2022-11-02T23:52:05.116Z,22.50
2022-11-02T23:54:51.147Z,21.23
2022-11-02T23:57:20.977Z,13.80
2022-11-02T23:59:49.635Z,15.00
